Flight Track Log - Related Links

Times and Time Zones

All times are in EDT time to prevent confusion due to time zone crossing. See the ASH3732 flight status page for this flight to view local times or setup timezone preferences in your user account.

Time Position Orientation Groundspeed Altitude Reporting Facility
EDT Latitude Longitude Course Direction KTS MPH feet Rate Location/Type
Mon 09:11:56 AM 25.7983 -80.2631 74° East 167 192 1,000  Level Miami Center
Mon 09:12:45 AM 25.8100 -80.2172 74° East 227 261 1,900 1,877 Climbing Miami Center
Mon 09:14:39 AM 25.9233 -80.1925 11° North 295 339 6,100 1,759 Climbing Miami Center
Mon 09:15:39 AM 25.9997 -80.2317 335° Northwest 295 339 7,000 1,250 Climbing Miami Center
Mon 09:16:39 AM 26.0781 -80.2686 337° Northwest 300 345 8,600 1,800 Climbing Miami Center
Mon 09:17:39 AM 26.1500 -80.3261 324° Northwest 305 351 10,600 1,700 Climbing Miami Center
Mon 09:18:39 AM 26.2106 -80.4067 310° West 317 365 12,000 1,650 Climbing Miami Center
Mon 09:19:39 AM 26.2867 -80.4575 329° Northwest 339 390 13,900 2,000 Climbing Miami Center
Mon 09:20:39 AM 26.3919 -80.5072 337° Northwest 366 421 16,000 1,750 Climbing Miami Center
Mon 09:21:39 AM 26.4806 -80.5517 336° Northwest 377 434 17,400 1,450 Climbing Miami Center
Mon 09:22:39 AM 26.5900 -80.6039 337° Northwest 377 434 18,900 1,400 Climbing Miami Center
Mon 09:23:39 AM 26.6786 -80.6461 337° Northwest 382 440 20,200 1,200 Climbing Miami Center
Mon 09:24:39 AM 26.7839 -80.6939 338° Northwest 397 457 21,300 1,150 Climbing Miami Center
Mon 09:25:39 AM 26.8936 -80.7369 341° North 408 470 22,500 1,250 Climbing Miami Center
Mon 09:26:39 AM 27.0031 -80.7733 343° North 408 470 23,800 1,150 Climbing Miami Center
Mon 09:27:39 AM 27.1128 -80.8144 342° North 403 464 24,800 1,000 Climbing Miami Center
Mon 09:28:39 AM 27.2222 -80.8531 343° North 409 471 25,800 1,100 Climbing Miami Center
Mon 09:29:39 AM 27.3483 -80.8972 343° North 414 476 27,000 1,050 Climbing Miami Center
Mon 09:30:39 AM 27.4622 -80.9386 342° North 421 484 27,900 900 Climbing Miami Center
Mon 09:31:39 AM 27.5736 -80.9800 342° North 421 484 28,800 900 Climbing Miami Center
Mon 09:32:39 AM 27.6811 -81.0167 343° North 426 490 29,700 900 Climbing Miami Center
Mon 09:33:39 AM 27.7925 -81.0606 341° North 426 490 30,600 650 Climbing Miami Center
Mon 09:34:39 AM 27.9247 -81.1103 342° North 442 509 31,000 400 Climbing Miami Center
Mon 09:35:39 AM 28.0464 -81.1547 342° North 455 524 31,400 500 Climbing Miami Center
Mon 09:36:39 AM 28.1703 -81.1994 342° North 462 532 32,000 600 Climbing Miami Center
Mon 09:37:39 AM 28.2817 -81.2414 342° North 462 532 32,600 550 Climbing Miami Center
Mon 09:38:39 AM 28.4078 -81.2864 343° North 467 537 33,100 550 Climbing Miami Center
Mon 09:39:39 AM 28.5314 -81.3292 343° North 467 537 33,700 650 Climbing Miami Center
Mon 09:40:39 AM 28.6789 -81.3492 353° North 472 543 34,400 591 Climbing Miami Center
Mon 09:41:51 AM 28.8400 -81.3661 355° North 498 573 35,000 273 Climbing Jacksonville Center
Mon 09:42:51 AM 28.9778 -81.3783 356° North 484 557 35,000  Level Jacksonville Center
Mon 09:43:51 AM 29.1136 -81.3928 355° North 484 557 35,000  Level Jacksonville Center
Mon 09:44:51 AM 29.2558 -81.4050 356° North 509 586 35,000  Level Jacksonville Center
Mon 09:45:51 AM 29.4000 -81.4169 356° North 515 593 35,000  Level Jacksonville Center
Mon 09:46:51 AM 29.5233 -81.4319 354° North 510 587 35,000  Level Jacksonville Center
Mon 09:47:51 AM 29.6653 -81.4442 356° North 510 587 35,000  Level Jacksonville Center
Mon 09:48:51 AM 29.8097 -81.4589 355° North 510 587 35,000  Level Jacksonville Center
Mon 09:49:51 AM 29.9517 -81.4733 355° North 510 587 35,000  Level Jacksonville Center
Mon 09:50:51 AM 30.0878 -81.5097 347° North 510 587 35,000  Level Jacksonville Center
Mon 09:51:51 AM 30.2200 -81.5681 339° North 503 579 35,000  Level Jacksonville Center
Mon 09:52:51 AM 30.3642 -81.5781 357° North 503 579 35,000  Level Jacksonville Center
Mon 09:53:51 AM 30.5100 -81.5472 10° North 503 579 35,000  Level Jacksonville Center
Mon 09:54:51 AM 30.6517 -81.5186 10° North 515 593 35,000  Level Jacksonville Center
Mon 09:55:51 AM 30.7953 -81.4900 10° North 520 598 35,000  Level Jacksonville Center
Mon 09:56:51 AM 30.9392 -81.4586 11° North 520 598 35,000  Level Jacksonville Center
Mon 09:57:51 AM 31.0850 -81.4297 10° North 526 605 35,000  Level Jacksonville Center
Mon 09:58:51 AM 31.2286 -81.3911 13° North 526 605 35,000  Level Jacksonville Center
Mon 09:59:51 AM 31.3717 -81.3036 28° Northeast 516 594 35,000  Level Jacksonville Center
Mon 10:00:51 AM 31.4919 -81.2383 25° Northeast 522 601 35,000  Level Jacksonville Center
Mon 10:01:51 AM 31.6411 -81.1550 25° Northeast 529 609 35,000  Level Jacksonville Center
Mon 10:02:51 AM 31.7592 -81.0894 25° Northeast 523 602 35,000  Level Jacksonville Center
Mon 10:03:51 AM 31.9103 -81.0033 26° Northeast 523 602 35,000  Level Jacksonville Center
Mon 10:04:51 AM 32.0447 -80.9294 25° Northeast 528 608 35,000  Level Jacksonville Center
Mon 10:05:51 AM 32.1689 -80.8606 25° Northeast 528 608 35,000  Level Jacksonville Center
Mon 10:06:51 AM 32.3158 -80.7786 25° Northeast 528 608 35,000  Level Jacksonville Center
Mon 10:07:51 AM 32.4358 -80.7092 26° Northeast 528 608 35,000  Level Jacksonville Center
Mon 10:08:51 AM 32.5700 -80.6297 27° Northeast 523 602 35,000 -50 Level Jacksonville Center
Mon 10:09:51 AM 32.7044 -80.5522 26° Northeast 523 602 34,900  Descending Jacksonville Center
Mon 10:10:51 AM 32.8386 -80.4769 25° Northeast 523 602 35,000 50 Climbing Jacksonville Center
Mon 10:11:51 AM 32.9811 -80.3964 25° Northeast 529 609 35,000  Level Jacksonville Center
Mon 10:12:51 AM 33.1153 -80.3158 27° Northeast 534 615 35,000  Level Jacksonville Center
Mon 10:13:51 AM 33.2556 -80.2397 24° Northeast 540 621 35,000  Level Jacksonville Center
Mon 10:14:51 AM 33.3894 -80.1586 27° Northeast 545 627 35,000  Level Jacksonville Center
Mon 10:15:51 AM 33.5378 -80.0742 25° Northeast 540 621 35,000  Level Jacksonville Center
Mon 10:16:51 AM 33.6736 -79.9925 27° Northeast 540 621 35,000  Level Jacksonville Center
Mon 10:17:51 AM 33.8094 -79.9131 26° Northeast 540 621 35,000  Level Jacksonville Center
Mon 10:18:51 AM 33.9453 -79.8311 27° Northeast 540 621 35,000  Level Jacksonville Center
Mon 10:19:51 AM 34.0831 -79.7508 26° Northeast 540 621 35,000  Level Jacksonville Center
Mon 10:21:43 AM 34.3192 -79.6125 26° Northeast 521 600 35,000  Level Washington Center
Mon 10:22:44 AM 34.4614 -79.5389 23° Northeast 526 605 35,000  Level Washington Center
Mon 10:23:44 AM 34.6036 -79.4650 23° Northeast 537 618 35,000  Level Washington Center
Mon 10:24:45 AM 34.7417 -79.3908 24° Northeast 537 618 35,000  Level Washington Center
Mon 10:25:43 AM 34.8836 -79.3164 23° Northeast 547 629 35,000  Level Washington Center
Mon 10:26:57 AM 35.0556 -79.2278 23° Northeast 547 629 35,000  Level Washington Center
Mon 10:27:55 AM 35.1956 -79.1528 24° Northeast 547 629 35,000  Level Washington Center
Mon 10:28:56 AM 35.3397 -79.0728 24° Northeast 557 641 35,000  Level Washington Center
Mon 10:29:57 AM 35.4942 -78.9953 22° Northeast 557 641 35,000 -101 Level Washington Center
Mon 10:31:00 AM 35.6110 -78.9293 25° Northeast  Level FlightAware Approximate
Mon 10:31:55 AM 35.7528 -78.8553 25° Northeast 552 635 34,700  Level Washington Center
Mon 10:32:56 AM 35.9222 -78.7622 24° Northeast 546 628 34,000 -344 Descending Washington Center
Mon 10:33:57 AM 36.0642 -78.6806 25° Northeast 546 628 34,000 -1,785 Level Washington Center
Mon 10:34:57 AM 36.2039 -78.6011 25° Northeast 546 628 30,400 -3,508 Descending Washington Center
Mon 10:35:55 AM 36.3350 -78.5261 25° Northeast 534 615 27,100 -1,146 Descending Washington Center
Mon 10:37:55 AM 36.5972 -78.3756 25° Northeast 514 592 27,000 -33 Descending Washington Center
Mon 10:38:56 AM 36.7136 -78.3047 26° Northeast 514 592 27,000  Level Washington Center
Mon 10:39:57 AM 36.8469 -78.2264 25° Northeast 514 592 27,000  Level Washington Center
Mon 10:40:57 AM 36.9694 -78.1550 25° Northeast 514 592 27,000 -867 Level Washington Center
Mon 10:42:57 AM 37.2439 -77.9972 25° Northeast 514 592 24,400 -1,382 Descending Washington Center
Mon 10:43:55 AM 37.3728 -77.9203 25° Northeast 514 592 22,900 -1,210 Descending Washington Center
Mon 10:44:56 AM 37.5014 -77.8458 25° Northeast 509 586 22,000 -1,041 Descending Washington Center
Mon 10:45:56 AM 37.6153 -77.7783 25° Northeast 483 556 20,800 -1,835 Descending Washington Center
Mon 10:46:57 AM 37.7272 -77.6922 31° Northeast 467 537 18,300 -2,471 Descending Washington Center
Mon 10:47:55 AM 37.8208 -77.5844 42° Northeast 459 528 15,900 -2,370 Descending Washington Center
Mon 10:48:56 AM 37.9103 -77.4764 44° Northeast 447 514 13,600 -2,083 Descending Washington Center
Mon 10:49:56 AM 37.9889 -77.3756 45° Northeast 418 481 11,700 -1,736 Descending Washington Center
Mon 10:50:57 AM 38.0889 -77.3806 358° North 346 398 10,100 -843 Descending Washington Center
Mon 10:51:57 AM 38.1831 -77.3694 North 335 386 10,000 -305 Descending Washington Center
Mon 10:52:55 AM 38.2750 -77.3611 North 335 386 9,500 -966 Descending Washington Center
Mon 10:53:55 AM 38.3625 -77.3553 North 324 373 8,100 -1,289 Descending Washington Center
Mon 10:54:56 AM 38.4481 -77.3600 358° North 310 357 6,900 -1,350 Descending Washington Center
Mon 10:55:55 AM 38.5333 -77.3647 358° North 304 350 5,400 -1,450 Descending Washington Center
Mon 10:56:56 AM 38.6125 -77.3664 359° North 299 344 4,000 -689 Descending Washington Center
Mon 10:57:57 AM 38.6919 -77.3631 North 287 330 4,000  Level Washington Center
Mon 10:58:57 AM 38.7733 -77.3597 North 287 330 4,000  Level Washington Center
Mon 10:59:59 AM 38.8667 -77.3500 North 289 333 4,000 -330 Level Potomac TRACON
Mon 11:01:59 AM 39.0333 -77.3500 360° North 273 314 3,000 -500 Descending Potomac TRACON
Mon 11:02:59 AM 39.1000 -77.3500 360° North 266 306 2,500 -500 Descending Potomac TRACON
Mon 11:03:59 AM 39.1333 -77.3833 322° Northwest 205 236 2,000 -250 Descending Potomac TRACON
Mon 11:04:59 AM 39.1167 -77.4333 247° West 184 212 2,000 -100 Level Potomac TRACON
Mon 11:06:59 AM 39.0167 -77.4333 180° South 138 159 1,700 -150 Descending Potomac TRACON
Mon 11:09:00 AM 38.9474 -77.4599 191° South  Level Estimated
Mon 11:16:00 AM 38.9474 -77.4599 191° South  Level Estimated
Mon 11:17:00 AM 38.9474 -77.4599 191° South  Level Estimated
Mon 11:18:00 AM 38.9474 -77.4599 191° South  Level Estimated
Mon 11:19:00 AM 38.9474 -77.4599 191° South  Level Estimated

Login

Don't have an account? Register now (free) for customized features, flight alerts, and more!